Time;durP1;ratioP1;P1;durP2;ratioP2;P2;SDS_P1;SDS_P2;PMS_P1;PMS_P2;Temp;Humidity;BMP_temperature;BMP_pressure;BME280_temperature;BME280_humidity;BME280_pressure;Samples;Min_cycle;Max_cycle;Signal;HPM_P1;HPM_P2
2022/11/25 00:00:15;;;;;;;1.03;1.03;;;2.30;98.70;1.30;95859.00;;;;5134332;28;20315;-63
2022/11/25 00:02:45;;;;;;;1.27;1.20;;;2.30;98.90;1.40;95863.00;;;;5134642;28;20231;-66
2022/11/25 00:05:11;;;;;;;1.07;1.07;;;2.30;98.50;1.40;95826.00;;;;5134356;28;20208;-65
2022/11/25 00:07:38;;;;;;;1.10;1.10;;;2.40;99.30;1.40;95865.00;;;;5134283;28;20655;-65
2022/11/25 00:10:07;;;;;;;1.73;1.63;;;2.40;99.00;1.40;95852.00;;;;5134392;28;20257;-65
2022/11/25 00:12:33;;;;;;;1.80;1.40;;;2.40;98.90;1.40;95849.00;;;;5134232;27;20224;-65
2022/11/25 00:14:59;;;;;;;1.23;1.23;;;2.40;98.90;1.50;95846.00;;;;5137454;28;20193;-65
2022/11/25 00:17:26;;;;;;;1.60;1.50;;;2.40;98.20;1.40;95849.00;;;;5137918;28;20301;-66
2022/11/25 00:19:52;;;;;;;0.77;0.77;;;2.40;98.60;1.40;95858.00;;;;5137848;28;20239;-66
2022/11/25 00:22:18;;;;;;;0.90;0.90;;;2.40;98.70;1.40;95856.00;;;;5137965;28;20541;-65
2022/11/25 00:24:45;;;;;;;1.47;1.43;;;2.40;98.90;1.50;95853.00;;;;5119711;28;20641;-66
2022/11/25 00:27:13;;;;;;;1.20;1.20;;;2.50;99.20;1.50;95850.00;;;;5138072;28;20527;-67
2022/11/25 00:29:41;;;;;;;2.00;1.83;;;2.50;98.90;1.50;95857.00;;;;5137736;28;20197;-66
2022/11/25 00:32:08;;;;;;;1.20;1.20;;;2.50;98.80;1.50;95855.00;;;;5137907;28;20198;-67
2022/11/25 00:34:36;;;;;;;1.37;1.27;;;2.50;98.90;1.50;95846.00;;;;5137896;28;20227;-64
2022/11/25 00:37:03;;;;;;;0.83;0.83;;;2.50;98.70;1.50;95848.00;;;;5137989;28;20216;-65
2022/11/25 00:39:29;;;;;;;0.77;0.77;;;2.60;98.80;1.50;95845.00;;;;5137871;28;20201;-68
2022/11/25 00:44:41;;;;;;;0.70;0.70;;;2.60;99.00;1.60;95840.00;;;;5137930;28;20529;-63
2022/11/25 00:47:12;;;;;;;1.33;1.33;;;2.60;98.90;1.70;95827.00;;;;5137478;28;20635;-67
2022/11/25 00:49:41;;;;;;;1.13;1.03;;;2.60;98.50;1.60;95809.00;;;;5137333;28;20209;-69
2022/11/25 00:52:12;;;;;;;1.30;1.20;;;2.60;98.50;1.50;95831.00;;;;5119418;28;20236;-66
2022/11/25 00:54:38;;;;;;;1.20;1.20;;;2.60;99.10;1.50;95831.00;;;;5137365;28;20253;-69
2022/11/25 00:57:05;;;;;;;0.93;0.93;;;2.50;99.30;1.70;95833.00;;;;5137297;28;20201;-66
2022/11/25 00:59:31;;;;;;;1.67;1.57;;;2.50;99.40;1.50;95841.00;;;;5137230;28;20591;-69
2022/11/25 01:01:59;;;;;;;1.70;1.60;;;2.50;98.50;1.60;95840.00;;;;5137207;28;20250;-67
2022/11/25 01:04:26;;;;;;;1.30;1.30;;;2.50;99.00;1.50;95839.00;;;;5137119;28;20208;-66
2022/11/25 01:06:55;;;;;;;1.63;1.53;;;2.50;98.70;1.30;95835.00;;;;5137067;28;20195;-66
2022/11/25 01:09:22;;;;;;;1.33;1.30;;;2.40;98.60;1.30;95838.00;;;;5118821;28;20220;-67
2022/11/25 01:11:50;;;;;;;0.93;0.93;;;2.40;99.20;1.40;95847.00;;;;5136997;28;20328;-66
2022/11/25 01:14:16;;;;;;;0.77;0.77;;;2.40;99.30;1.40;95842.00;;;;5118867;28;20226;-64
2022/11/25 01:16:42;;;;;;;1.20;1.20;;;2.50;99.70;1.50;95856.00;;;;5136818;28;20230;-65
2022/11/25 01:19:11;;;;;;;1.27;1.27;;;2.50;99.60;1.50;95853.00;;;;5136797;28;20272;-64
2022/11/25 01:21:38;;;;;;;1.60;1.00;;;2.50;99.60;1.60;95834.00;;;;5136877;28;20681;-66
2022/11/25 01:24:08;;;;;;;0.90;0.90;;;2.50;99.90;1.60;95835.00;;;;5136197;27;20220;-66
2022/11/25 01:26:35;;;;;;;1.07;1.07;;;2.60;99.50;1.70;95830.00;;;;5136616;28;20220;-66
2022/11/25 01:29:04;;;;;;;0.83;0.83;;;2.70;99.50;1.70;95844.00;;;;5136703;28;20260;-66
2022/11/25 01:31:33;;;;;;;0.60;0.60;;;2.70;99.90;1.70;95861.00;;;;5136513;28;20227;-66
2022/11/25 01:34:04;;;;;;;1.43;1.33;;;2.60;99.10;1.70;95822.00;;;;5136564;28;20731;-69
2022/11/25 01:36:32;;;;;;;1.50;1.43;;;2.50;97.60;1.50;95848.00;;;;5136534;28;20220;-66
2022/11/25 01:39:00;;;;;;;1.00;1.00;;;2.50;98.40;1.60;95848.00;;;;5136859;28;20215;-67
2022/11/25 01:41:30;;;;;;;1.17;1.13;;;2.50;99.90;1.40;95861.00;;;;5136677;28;20290;-67
2022/11/25 01:44:11;;;;;;;0.87;0.87;;;2.40;98.20;1.20;95855.00;;;;5118404;28;20221;-66
2022/11/25 01:46:54;;;;;;;1.10;1.10;;;2.30;99.30;1.30;95858.00;;;;5136438;28;20253;-65
2022/11/25 01:49:29;;;;;;;1.07;1.07;;;2.30;99.60;1.40;95868.00;;;;5136423;28;20221;-64
2022/11/25 01:52:03;;;;;;;1.53;1.43;;;2.40;99.90;1.40;95850.00;;;;5136557;28;20695;-66
2022/11/25 01:54:39;;;;;;;1.50;1.40;;;2.40;99.60;1.40;95865.00;;;;5118040;28;20291;-64
2022/11/25 01:57:14;;;;;;;1.03;1.03;;;2.30;99.60;1.30;95857.00;;;;5136260;28;20203;-64
2022/11/25 01:59:48;;;;;;;0.80;0.80;;;2.30;99.90;1.30;95859.00;;;;5136126;28;20343;-64
2022/11/25 02:02:16;;;;;;;1.20;1.07;;;2.40;99.90;1.30;95853.00;;;;5136105;28;20227;-64
2022/11/25 02:04:46;;;;;;;2.20;2.10;;;2.30;99.90;1.30;95852.00;;;;5136218;28;20296;-64
2022/11/25 02:07:21;;;;;;;0.70;0.70;;;2.30;99.90;1.30;95846.00;;;;5118147;28;20208;-64
2022/11/25 02:09:50;;;;;;;0.90;0.90;;;2.30;99.90;1.30;95841.00;;;;5117957;28;20646;-65
2022/11/25 02:12:19;;;;;;;1.07;1.07;;;2.30;99.90;1.30;95839.00;;;;5117933;28;20623;-65
2022/11/25 02:14:51;;;;;;;1.00;1.00;;;2.30;99.90;1.30;95846.00;;;;5135970;28;20281;-64
2022/11/25 02:17:17;;;;;;;0.97;0.97;;;2.30;99.70;1.30;95840.00;;;;5118284;28;20232;-65
2022/11/25 02:19:58;;;;;;;1.57;1.47;;;2.30;99.60;1.30;95836.00;;;;5136084;28;20210;-64
2022/11/25 02:22:38;;;;;;;0.73;0.73;;;2.20;99.20;1.20;95838.00;;;;5135828;28;20236;-66
2022/11/25 02:25:15;;;;;;;1.23;1.23;;;2.20;99.90;1.30;95841.00;;;;5136032;28;20296;-66
2022/11/25 02:27:45;;;;;;;2.03;1.23;;;2.20;99.90;1.30;95836.00;;;;5135802;28;20223;-66
2022/11/25 02:30:13;;;;;;;0.70;0.70;;;2.20;99.90;1.20;95834.00;;;;5117622;28;20283;-66
2022/11/25 02:32:43;;;;;;;0.83;0.83;;;2.20;98.90;1.00;95848.00;;;;5135508;28;20201;-63
2022/11/25 02:35:34;;;;;;;1.43;1.33;;;2.10;99.10;1.00;95828.00;;;;5135644;27;20181;-65
2022/11/25 02:38:07;;;;;;;0.77;0.77;;;2.00;99.20;1.00;95829.00;;;;5135229;28;20705;-66
2022/11/25 02:40:43;;;;;;;1.10;1.10;;;2.00;99.40;1.10;95821.00;;;;5135521;28;20219;-64
2022/11/25 02:43:12;;;;;;;0.80;0.80;;;2.20;99.90;1.10;95828.00;;;;5135388;28;20234;-65
2022/11/25 02:45:55;;;;;;;0.77;0.77;;;2.10;99.60;1.00;95824.00;;;;5135419;28;20307;-65
2022/11/25 02:48:22;;;;;;;0.90;0.90;;;2.10;99.60;1.00;95820.00;;;;5135359;28;20209;-65
2022/11/25 02:50:49;;;;;;;4.00;2.27;;;2.10;99.90;1.10;95810.00;;;;5135233;28;20525;-64
2022/11/25 02:53:18;;;;;;;1.00;1.00;;;2.10;99.90;1.10;95811.00;;;;5135335;28;20277;-65
2022/11/25 02:55:45;;;;;;;0.93;0.93;;;2.10;99.70;1.10;95812.00;;;;5135333;28;20603;-65
2022/11/25 02:58:12;;;;;;;1.27;1.27;;;2.00;99.60;1.00;95809.00;;;;5135313;28;20668;-66
2022/11/25 03:00:39;;;;;;;1.33;1.30;;;2.00;99.90;0.80;95803.00;;;;5135293;28;20206;-65
2022/11/25 03:03:06;;;;;;;1.00;1.00;;;1.80;99.70;0.80;95814.00;;;;5135150;28;20551;-65
2022/11/25 03:05:33;;;;;;;1.20;1.20;;;1.80;99.90;0.80;95807.00;;;;5135101;28;20287;-65
2022/11/25 03:07:59;;;;;;;0.80;0.80;;;1.90;99.90;0.90;95800.00;;;;5135022;28;20226;-65
2022/11/25 03:10:26;;;;;;;0.80;0.80;;;1.80;99.90;0.80;95804.00;;;;5135182;28;20200;-64
2022/11/25 03:12:53;;;;;;;0.90;0.90;;;1.80;99.80;0.80;95798.00;;;;5135045;28;20255;-65
2022/11/25 03:15:20;;;;;;;0.90;0.90;;;1.70;99.90;0.70;95808.00;;;;5135037;28;20208;-65
2022/11/25 03:17:46;;;;;;;1.03;1.03;;;1.80;99.90;0.90;95805.00;;;;5134888;28;20206;-65
2022/11/25 03:20:14;;;;;;;1.00;1.00;;;2.00;99.90;0.90;95804.00;;;;5134957;28;20183;-65
2022/11/25 03:22:41;;;;;;;1.23;1.13;;;2.00;99.90;1.00;95792.00;;;;5134819;28;20276;-65
2022/11/25 03:25:09;;;;;;;1.23;1.17;;;2.10;99.90;1.10;95799.00;;;;5134840;28;20192;-65
2022/11/25 03:27:36;;;;;;;0.70;0.70;;;2.10;99.90;1.10;95799.00;;;;5134984;28;20207;-66
2022/11/25 03:30:08;;;;;;;1.00;1.00;;;2.10;99.90;1.10;95795.00;;;;5134717;28;20223;-64
2022/11/25 03:32:35;;;;;;;1.13;1.13;;;2.10;99.60;1.10;95790.00;;;;5134836;28;20272;-65
2022/11/25 03:35:01;;;;;;;0.90;0.90;;;2.10;99.60;1.10;95784.00;;;;5134657;28;20230;-65
2022/11/25 03:37:30;;;;;;;1.23;1.23;;;2.10;99.50;1.10;95751.00;;;;5134558;28;20205;-66
2022/11/25 03:39:57;;;;;;;0.87;0.87;;;2.10;99.90;1.20;95802.00;;;;5116689;28;20766;-66
2022/11/25 03:42:23;;;;;;;0.70;0.70;;;2.10;99.00;1.10;95790.00;;;;5116785;28;20548;-65
2022/11/25 03:44:50;;;;;;;0.77;0.77;;;2.20;99.70;1.10;95802.00;;;;5134501;28;20620;-65
2022/11/25 03:47:17;;;;;;;0.90;0.90;;;2.10;99.40;1.10;95803.00;;;;5134190;27;20286;-65
2022/11/25 03:49:43;;;;;;;1.17;1.17;;;2.10;98.20;1.10;95813.00;;;;5134525;28;20491;-66
2022/11/25 03:52:09;;;;;;;1.07;1.07;;;2.10;98.00;1.10;95809.00;;;;5134418;28;20232;-65
2022/11/25 03:54:36;;;;;;;0.97;0.97;;;2.10;98.40;1.10;95812.00;;;;5134680;28;20207;-68
2022/11/25 03:57:02;;;;;;;1.03;1.03;;;2.10;99.20;1.10;95807.00;;;;5134315;28;20706;-66
2022/11/25 03:59:29;;;;;;;1.00;1.00;;;2.10;99.50;1.20;95798.00;;;;5134378;28;20201;-66
2022/11/25 04:01:55;;;;;;;13.03;1.07;;;2.20;99.50;1.30;95793.00;;;;5134354;28;20522;-66
2022/11/25 04:04:22;;;;;;;0.70;0.70;;;2.20;99.50;1.30;95792.00;;;;5134216;28;20228;-65
2022/11/25 04:06:49;;;;;;;0.93;0.93;;;2.20;98.80;1.30;95795.00;;;;5134328;28;20200;-66
2022/11/25 04:09:15;;;;;;;0.87;0.87;;;2.30;99.60;1.30;95787.00;;;;5134318;28;20219;-65
2022/11/25 04:14:26;;;;;;;0.73;0.73;;;2.10;98.60;1.00;95774.00;;;;5134098;28;20222;-66
2022/11/25 04:16:55;;;;;;;1.13;1.13;;;2.00;98.50;0.80;95775.00;;;;5134218;28;20197;-66
2022/11/25 04:19:22;;;;;;;2.10;1.33;;;1.80;98.10;0.80;95771.00;;;;5134140;28;20192;-65
2022/11/25 04:21:52;;;;;;;0.90;0.90;;;1.80;98.80;0.80;95760.00;;;;5134075;28;20581;-63
2022/11/25 04:24:18;;;;;;;0.60;0.60;;;1.80;99.40;0.80;95776.00;;;;5134113;28;20238;-66
2022/11/25 04:26:45;;;;;;;1.20;1.20;;;1.80;99.70;0.60;95769.00;;;;5133992;28;20315;-65
2022/11/25 04:29:11;;;;;;;0.80;0.80;;;1.70;99.30;0.60;95778.00;;;;5134016;28;20200;-66
2022/11/25 04:31:37;;;;;;;2.43;1.60;;;1.70;99.50;0.60;95781.00;;;;5133947;28;20738;-66
2022/11/25 04:34:04;;;;;;;0.83;0.83;;;1.60;99.60;0.60;95775.00;;;;5133945;28;20204;-65
2022/11/25 04:36:32;;;;;;;2.00;1.40;;;1.70;99.90;0.60;95782.00;;;;5133909;28;20204;-63
2022/11/25 04:38:58;;;;;;;1.03;1.03;;;1.60;99.90;0.60;95781.00;;;;5134139;28;20204;-65
2022/11/25 04:41:24;;;;;;;0.73;0.73;;;1.60;99.90;0.60;95791.00;;;;5134078;28;20205;-65
2022/11/25 04:43:51;;;;;;;1.30;1.20;;;1.60;99.90;0.70;95779.00;;;;5133891;28;20816;-65
2022/11/25 04:46:21;;;;;;;1.60;1.50;;;1.70;99.70;0.60;95782.00;;;;5133751;28;20575;-65
2022/11/25 04:48:47;;;;;;;1.20;1.20;;;1.70;99.60;0.60;95785.00;;;;5133753;28;20231;-65
2022/11/25 04:51:14;;;;;;;1.20;1.20;;;1.70;99.50;0.60;95775.00;;;;5133668;28;20634;-65
2022/11/25 04:53:41;;;;;;;1.10;1.10;;;1.70;99.90;0.60;95776.00;;;;5133629;28;20196;-67
2022/11/25 04:56:09;;;;;;;1.03;1.03;;;1.70;99.90;0.60;95771.00;;;;5133871;28;20203;-66
2022/11/25 05:01:22;;;;;;;0.97;0.97;;;1.70;99.90;0.70;95778.00;;;;5137189;28;20179;-65
2022/11/25 05:03:49;;;;;;;1.20;1.20;;;1.70;99.90;0.60;95784.00;;;;5137007;28;20227;-65
2022/11/25 05:06:16;;;;;;;1.07;1.07;;;1.60;99.40;0.60;95781.00;;;;5136965;28;20213;-65
2022/11/25 05:08:43;;;;;;;0.90;0.90;;;1.60;99.30;0.80;95787.00;;;;5118822;28;20592;-65
2022/11/25 05:11:09;;;;;;;0.90;0.90;;;1.70;99.50;0.60;95779.00;;;;5136857;28;20236;-65
2022/11/25 05:13:35;;;;;;;0.97;0.97;;;1.60;98.50;0.50;95793.00;;;;5136862;28;20196;-63
2022/11/25 05:16:02;;;;;;;1.23;1.23;;;1.60;98.50;0.50;95783.00;;;;5136778;28;20214;-65
2022/11/25 05:18:28;;;;;;;0.80;0.80;;;1.60;98.60;0.60;95790.00;;;;5136836;28;20207;-64
2022/11/25 05:21:01;;;;;;;0.90;0.90;;;1.70;98.90;0.60;95790.00;;;;5136753;28;20200;-64
2022/11/25 05:23:30;;;;;;;1.00;1.00;;;1.70;99.90;0.70;95778.00;;;;5136613;28;20232;-65
2022/11/25 05:26:00;;;;;;;1.33;1.30;;;1.70;99.60;0.70;95780.00;;;;5136711;28;20199;-65
2022/11/25 05:28:26;;;;;;;1.40;1.33;;;1.70;99.50;0.80;95793.00;;;;5136574;28;20214;-65
2022/11/25 05:30:53;;;;;;;1.10;1.10;;;1.70;98.80;0.80;95807.00;;;;5136513;28;20206;-65
2022/11/25 05:33:20;;;;;;;0.90;0.90;;;1.80;99.10;0.80;95800.00;;;;5136488;28;20238;-66
2022/11/25 05:35:55;;;;;;;1.33;1.07;;;1.80;99.10;0.80;95809.00;;;;5136622;28;20198;-66
2022/11/25 05:38:22;;;;;;;0.90;0.90;;;1.90;99.40;0.90;95773.00;;;;5118413;28;20605;-63
2022/11/25 05:40:51;;;;;;;0.83;0.83;;;1.90;99.30;0.90;95810.00;;;;5136435;28;20211;-66
2022/11/25 05:43:18;;;;;;;2.23;1.57;;;1.90;99.20;0.90;95827.00;;;;5136313;28;20643;-65
2022/11/25 05:45:45;;;;;;;2.33;1.27;;;1.80;98.80;0.80;95814.00;;;;5136337;28;20219;-65
2022/11/25 05:48:14;;;;;;;1.00;1.00;;;1.80;98.90;0.80;95829.00;;;;5136353;28;20203;-65
2022/11/25 05:50:40;;;;;;;0.90;0.90;;;1.80;98.80;0.70;95821.00;;;;5136255;28;20561;-64
2022/11/25 05:53:06;;;;;;;1.80;1.33;;;1.80;98.90;0.70;95832.00;;;;5136221;28;20211;-65
2022/11/25 05:55:33;;;;;;;2.40;1.20;;;1.70;98.80;0.60;95822.00;;;;5136221;28;20212;-67
2022/11/25 05:57:59;;;;;;;3.27;1.33;;;1.60;98.80;0.60;95827.00;;;;5136295;28;20215;-65
2022/11/25 06:00:27;;;;;;;1.80;1.40;;;1.70;98.70;0.60;95833.00;;;;5136192;28;20190;-65
2022/11/25 06:02:53;;;;;;;1.23;1.23;;;1.70;98.70;0.60;95828.00;;;;5135985;28;20234;-65
2022/11/25 06:05:23;;;;;;;1.00;1.00;;;1.70;99.30;0.50;95826.00;;;;5136183;28;20262;-66
2022/11/25 06:07:49;;;;;;;1.00;1.00;;;1.60;98.60;0.50;95834.00;;;;5136043;28;20215;-67
2022/11/25 06:10:16;;;;;;;0.60;0.60;;;1.50;98.60;0.40;95851.00;;;;5136123;27;20198;-66
2022/11/25 06:12:42;;;;;;;1.27;1.27;;;1.50;98.20;0.40;95835.00;;;;5135990;28;20218;-66
2022/11/25 06:15:10;;;;;;;0.97;0.97;;;1.40;98.40;0.40;95836.00;;;;5136104;28;20710;-66
2022/11/25 06:17:37;;;;;;;0.87;0.87;;;1.50;98.50;0.40;95834.00;;;;5135915;28;20294;-66
2022/11/25 06:20:06;;;;;;;0.90;0.90;;;1.40;98.20;0.50;95836.00;;;;5117698;28;20641;-67
2022/11/25 06:22:32;;;;;;;1.10;1.10;;;1.40;98.60;0.50;95832.00;;;;5135800;28;20215;-65
2022/11/25 06:24:59;;;;;;;0.80;0.80;;;1.50;98.50;0.60;95829.00;;;;5117583;28;20223;-64
2022/11/25 06:27:25;;;;;;;1.10;1.10;;;1.60;98.70;0.60;95844.00;;;;5135696;28;20260;-66
2022/11/25 06:29:51;;;;;;;1.10;1.10;;;1.70;98.20;0.70;95843.00;;;;5135479;28;20647;-64
2022/11/25 06:32:20;;;;;;;1.53;1.43;;;1.70;98.40;0.90;95842.00;;;;5135680;28;20199;-64
2022/11/25 06:34:49;;;;;;;1.37;1.33;;;1.80;98.60;0.70;95850.00;;;;5135545;28;20235;-65
2022/11/25 06:37:16;;;;;;;0.67;0.67;;;1.70;97.80;0.70;95854.00;;;;5117632;28;20203;-65
2022/11/25 06:39:45;;;;;;;0.90;0.90;;;1.60;98.20;0.60;95861.00;;;;5135579;28;20228;-66
2022/11/25 06:42:11;;;;;;;0.87;0.87;;;1.60;98.60;0.60;95865.00;;;;5135595;28;20721;-68
2022/11/25 06:44:37;;;;;;;0.97;0.97;;;1.60;99.90;0.60;95861.00;;;;5135356;28;20225;-65
2022/11/25 06:47:04;;;;;;;4.73;1.60;;;1.60;99.20;0.60;95873.00;;;;5135616;28;20616;-65
2022/11/25 06:49:31;;;;;;;1.53;1.43;;;1.70;99.80;0.70;95887.00;;;;5135408;28;20205;-66
2022/11/25 06:51:58;;;;;;;1.83;1.73;;;1.70;99.90;0.80;95863.00;;;;5117321;28;20609;-66
2022/11/25 06:54:24;;;;;;;1.67;1.57;;;1.80;99.90;0.80;95886.00;;;;5135480;28;20214;-66
2022/11/25 06:56:52;;;;;;;1.37;1.13;;;1.90;99.90;0.90;95877.00;;;;5135527;28;20202;-66
2022/11/25 06:59:19;;;;;;;0.80;0.80;;;1.90;99.90;0.90;95874.00;;;;5117180;28;20203;-66
2022/11/25 07:01:46;;;;;;;0.70;0.70;;;1.90;99.90;1.00;95879.00;;;;5135186;28;20199;-66
2022/11/25 07:04:12;;;;;;;1.70;1.27;;;2.00;99.90;1.10;95868.00;;;;5116985;28;20258;-66
2022/11/25 07:06:39;;;;;;;1.30;1.30;;;2.10;99.90;1.10;95881.00;;;;5135240;28;20206;-66
2022/11/25 07:09:07;;;;;;;2.43;1.43;;;2.10;99.90;1.30;95862.00;;;;5117094;28;20269;-66
2022/11/25 07:11:36;;;;;;;0.90;0.90;;;2.20;99.90;1.20;95870.00;;;;5134999;28;20192;-65
2022/11/25 07:14:06;;;;;;;4.27;1.50;;;2.20;98.80;1.30;95879.00;;;;5134928;28;20622;-65
2022/11/25 07:16:33;;;;;;;0.70;0.70;;;2.20;99.60;1.30;95888.00;;;;5134890;28;20247;-64
2022/11/25 07:19:01;;;;;;;2.00;1.90;;;2.20;99.30;1.30;95895.00;;;;5135094;28;20199;-65
2022/11/25 07:21:32;;;;;;;3.63;3.30;;;2.30;99.10;1.30;95888.00;;;;5134982;27;20220;-65
2022/11/25 07:24:00;;;;;;;2.97;2.70;;;2.30;99.90;1.40;95886.00;;;;5134520;28;20284;-65
2022/11/25 07:26:30;;;;;;;1.90;1.80;;;2.30;99.80;1.40;95910.00;;;;5134851;28;20383;-65
2022/11/25 07:29:00;;;;;;;2.13;2.03;;;2.40;99.40;1.50;95907.00;;;;5134842;28;20251;-66
2022/11/25 07:31:29;;;;;;;1.60;1.50;;;2.50;99.40;1.50;95909.00;;;;5134785;28;20536;-66
2022/11/25 07:34:01;;;;;;;1.50;1.40;;;2.50;99.90;1.50;95920.00;;;;5134858;28;20207;-66
2022/11/25 07:36:33;;;;;;;1.27;1.27;;;2.60;99.30;1.50;95915.00;;;;5134816;28;20227;-65
2022/11/25 07:39:03;;;;;;;1.03;1.03;;;2.60;99.90;1.70;95924.00;;;;5134870;28;20192;-66
2022/11/25 07:41:30;;;;;;;0.97;0.97;;;2.60;99.90;1.80;95922.00;;;;5134637;28;20791;-65
2022/11/25 07:44:00;;;;;;;1.27;1.23;;;2.70;99.00;1.70;95919.00;;;;5134671;28;20659;-67
2022/11/25 07:46:29;;;;;;;1.57;1.47;;;2.70;99.10;1.70;95928.00;;;;5134559;28;20227;-64
2022/11/25 07:48:59;;;;;;;2.80;1.60;;;2.70;99.30;1.70;95926.00;;;;5134531;28;20513;-65
2022/11/25 07:51:29;;;;;;;3.10;2.80;;;2.70;99.40;1.80;95921.00;;;;5134442;28;20586;-64
2022/11/25 07:54:00;;;;;;;1.47;1.47;;;2.80;99.50;1.90;95900.00;;;;5134546;28;20642;-65
2022/11/25 07:56:28;;;;;;;1.70;1.60;;;2.80;99.90;2.00;95911.00;;;;5134491;28;20192;-67
2022/11/25 07:58:57;;;;;;;1.23;1.23;;;2.90;99.90;2.10;95920.00;;;;5134352;28;20199;-66
2022/11/25 08:01:24;;;;;;;1.67;1.53;;;2.90;99.90;2.00;95921.00;;;;5134337;28;20265;-66
2022/11/25 08:03:51;;;;;;;0.80;0.80;;;2.90;99.20;1.90;95921.00;;;;5134470;28;20232;-66
2022/11/25 08:06:21;;;;;;;1.10;1.10;;;2.80;98.60;1.90;95925.00;;;;5134393;28;20587;-66
2022/11/25 08:08:53;;;;;;;1.60;1.50;;;2.90;98.80;2.00;95932.00;;;;5134311;28;20200;-65
2022/11/25 08:11:22;;;;;;;1.70;1.60;;;2.90;99.20;2.10;95936.00;;;;5134262;28;20628;-66
2022/11/25 08:13:49;;;;;;;1.13;1.13;;;3.00;99.90;2.10;95934.00;;;;5134295;28;20271;-66
2022/11/25 08:16:19;;;;;;;1.00;1.00;;;3.10;98.40;2.20;95928.00;;;;5134297;28;20197;-66
2022/11/25 08:18:46;;;;;;;1.00;1.00;;;3.20;98.70;2.40;95923.00;;;;5134276;28;20196;-69
2022/11/25 08:21:15;;;;;;;1.10;1.10;;;3.30;98.80;2.50;95935.00;;;;5134160;28;20242;-68
2022/11/25 08:23:43;;;;;;;0.97;0.97;;;3.30;99.40;2.60;95931.00;;;;5134140;28;20218;-65
2022/11/25 08:26:12;;;;;;;0.60;0.60;;;3.40;98.30;2.50;95926.00;;;;5134147;28;20351;-66
2022/11/25 08:28:40;;;;;;;1.40;1.33;;;3.40;98.80;2.50;95931.00;;;;5116318;28;20279;-68
2022/11/25 08:31:10;;;;;;;1.70;1.60;;;3.20;97.40;2.20;95932.00;;;;5134265;28;20197;-66
2022/11/25 08:33:38;;;;;;;2.10;1.40;;;3.20;98.10;2.20;95942.00;;;;5134059;27;20224;-69
2022/11/25 08:36:05;;;;;;;1.37;1.10;;;3.10;98.70;2.20;95934.00;;;;5137343;28;20281;-66
2022/11/25 08:38:33;;;;;;;1.13;1.07;;;3.10;99.60;2.30;95924.00;;;;5137582;28;20237;-68
2022/11/25 08:41:00;;;;;;;0.70;0.70;;;3.20;99.90;2.50;95935.00;;;;5137470;28;20201;-66
2022/11/25 08:43:27;;;;;;;0.80;0.80;;;3.30;99.90;2.50;95940.00;;;;5137451;28;20209;-68
2022/11/25 08:45:54;;;;;;;0.70;0.70;;;3.30;99.50;2.50;95946.00;;;;5119599;28;20197;-66
2022/11/25 08:48:21;;;;;;;1.87;1.27;;;3.40;99.90;2.60;95945.00;;;;5119388;28;20619;-64
2022/11/25 08:50:53;;;;;;;0.63;0.63;;;3.50;99.90;2.70;95946.00;;;;5137303;28;20225;-63
2022/11/25 08:53:21;;;;;;;0.83;0.83;;;3.50;99.90;2.80;95954.00;;;;5137620;28;20189;-66
2022/11/25 08:55:49;;;;;;;0.90;0.90;;;3.70;99.10;2.80;95956.00;;;;5137405;28;20224;-65
2022/11/25 08:58:16;;;;;;;1.00;1.00;;;3.70;99.10;2.80;95959.00;;;;5137298;28;20245;-65
2022/11/25 09:00:44;;;;;;;0.87;0.87;;;3.80;99.20;3.00;95962.00;;;;5137740;28;20196;-66
2022/11/25 09:03:11;;;;;;;2.33;2.03;;;3.80;99.80;3.00;95962.00;;;;5137187;28;20655;-65
2022/11/25 09:05:41;;;;;;;1.13;1.13;;;3.90;99.80;3.20;95966.00;;;;5119036;28;20603;-65
2022/11/25 09:08:10;;;;;;;1.57;1.47;;;4.00;99.90;3.30;95957.00;;;;5119137;28;20285;-65
2022/11/25 09:10:38;;;;;;;1.40;1.30;;;4.20;99.90;3.40;95957.00;;;;5137390;28;20193;-66
2022/11/25 09:13:05;;;;;;;1.03;1.03;;;4.20;99.90;3.60;95958.00;;;;5119331;28;20233;-68
2022/11/25 09:15:32;;;;;;;1.23;1.13;;;4.40;99.90;3.80;95955.00;;;;5137110;28;20275;-66
2022/11/25 09:17:59;;;;;;;1.50;1.40;;;4.50;99.90;3.90;95952.00;;;;5119065;28;20284;-64
2022/11/25 09:20:26;;;;;;;0.90;0.90;;;4.70;99.80;4.00;95947.00;;;;5137236;28;20204;-64
2022/11/25 09:22:53;;;;;;;1.57;1.47;;;4.90;99.60;4.20;95950.00;;;;5137064;28;20217;-66
2022/11/25 09:25:22;;;;;;;2.03;1.93;;;4.90;99.60;4.30;95950.00;;;;5137120;28;20725;-65
2022/11/25 09:27:48;;;;;;;1.77;1.67;;;5.10;99.50;4.50;95952.00;;;;5137183;28;20324;-66
2022/11/25 09:30:15;;;;;;;2.70;2.40;;;5.20;99.50;4.60;95950.00;;;;5136985;28;20228;-68
2022/11/25 09:32:42;;;;;;;2.30;2.10;;;5.40;99.40;4.80;95948.00;;;;5136838;28;20189;-66
2022/11/25 09:35:09;;;;;;;2.23;2.13;;;5.50;99.20;5.00;95949.00;;;;5137178;28;20225;-66
2022/11/25 09:37:36;;;;;;;6.90;3.30;;;5.70;99.30;5.00;95957.00;;;;5136935;28;20660;-65
2022/11/25 09:40:03;;;;;;;3.13;2.83;;;5.80;98.30;5.10;95960.00;;;;5118717;28;20210;-66
2022/11/25 09:48:52;;;;;;;4.53;3.20;;;6.10;97.40;5.60;95976.00;;;;5136734;28;20224;-66
2022/11/25 09:51:23;;;;;;;0.90;0.90;;;6.30;96.20;5.60;95972.00;;;;5136732;28;20212;-66
2022/11/25 09:53:54;;;;;;;0.80;0.80;;;6.30;94.80;5.80;95974.00;;;;5136608;28;20248;-68
2022/11/25 09:56:34;;;;;;;0.97;0.97;;;6.50;95.10;6.20;95972.00;;;;5136638;28;20177;-65
2022/11/25 09:59:10;;;;;;;1.10;1.00;;;6.70;95.90;6.70;95967.00;;;;5118520;28;20216;-66
2022/11/25 10:01:48;;;;;;;1.20;1.10;;;7.20;96.00;6.70;95983.00;;;;5136678;28;20281;-65
2022/11/25 10:04:22;;;;;;;0.73;0.73;;;7.30;94.00;6.70;95980.00;;;;5136479;28;20221;-65
2022/11/25 10:06:55;;;;;;;2.03;1.93;;;7.40;91.90;6.80;95951.00;;;;5136504;28;20203;-66
2022/11/25 10:09:26;;;;;;;1.50;1.40;;;7.40;93.30;6.90;95987.00;;;;5136422;28;20212;-65
2022/11/25 10:11:55;;;;;;;0.97;0.97;;;7.50;93.00;6.90;95984.00;;;;5136449;28;20303;-64
2022/11/25 10:14:34;;;;;;;1.30;1.30;;;7.60;91.70;6.90;95971.00;;;;5136443;28;20220;-64
2022/11/25 10:17:13;;;;;;;1.00;1.00;;;7.60;92.30;7.00;95980.00;;;;5136407;28;20225;-64
2022/11/25 10:19:55;;;;;;;2.07;1.97;;;7.60;92.70;7.10;95983.00;;;;5136348;28;20218;-65
2022/11/25 10:22:26;;;;;;;1.47;1.43;;;7.70;92.80;7.00;95984.00;;;;5136524;28;20204;-67
2022/11/25 10:24:57;;;;;;;2.63;1.53;;;7.80;92.50;6.80;95984.00;;;;5118021;28;20556;-65
2022/11/25 10:27:37;;;;;;;2.27;2.07;;;7.60;93.40;6.70;95983.00;;;;5136153;28;20193;-68
2022/11/25 10:30:15;;;;;;;1.50;1.43;;;7.60;94.00;6.70;95984.00;;;;5135977;28;20305;-63
2022/11/25 10:32:51;;;;;;;1.13;1.13;;;7.50;93.60;6.60;95984.00;;;;5136339;28;20204;-67
2022/11/25 10:35:29;;;;;;;1.80;1.70;;;7.40;93.20;6.70;95989.00;;;;5118008;28;20766;-67
2022/11/25 10:38:00;;;;;;;1.67;1.57;;;7.40;93.60;6.70;95983.00;;;;5136066;28;20208;-68
2022/11/25 10:40:27;;;;;;;2.20;2.00;;;7.40;94.10;6.60;95977.00;;;;5117939;28;20220;-67
2022/11/25 10:42:54;;;;;;;0.67;0.67;;;7.40;94.10;6.50;95987.00;;;;5136008;28;20197;-67
2022/11/25 10:45:35;;;;;;;0.93;0.93;;;7.30;94.70;6.30;95998.00;;;;5136037;28;20224;-65
2022/11/25 10:48:17;;;;;;;1.37;1.37;;;7.20;95.10;6.20;95997.00;;;;5136123;28;20184;-64
2022/11/25 10:51:12;;;;;;;4.30;1.23;;;7.10;95.80;6.30;95984.00;;;;5135852;28;20445;-64
2022/11/25 10:53:38;;;;;;;0.97;0.97;;;7.00;96.60;6.20;96009.00;;;;5135800;28;20184;-66
2022/11/25 10:56:11;;;;;;;0.70;0.70;;;7.00;96.00;6.20;96006.00;;;;5135788;28;20193;-65
2022/11/25 10:58:41;;;;;;;0.67;0.67;;;7.00;96.60;6.20;96005.00;;;;5134729;27;20224;-65
2022/11/25 11:01:16;;;;;;;0.67;0.67;;;6.90;97.60;6.10;96020.00;;;;5117455;28;20207;-64
2022/11/25 11:03:45;;;;;;;0.77;0.77;;;6.90;97.60;6.00;95995.00;;;;5135277;28;20220;-67
2022/11/25 11:06:35;;;;;;;0.90;0.90;;;6.80;97.80;6.00;96018.00;;;;5135460;28;20556;-65
2022/11/25 11:09:02;;;;;;;0.67;0.67;;;6.80;98.40;6.00;96018.00;;;;5135393;28;20197;-67
2022/11/25 11:11:29;;;;;;;1.33;1.20;;;6.80;98.40;6.00;96025.00;;;;5135579;28;20236;-64
2022/11/25 11:14:12;;;;;;;0.73;0.73;;;6.80;98.90;6.10;96030.00;;;;5135274;28;20195;-64
2022/11/25 11:16:42;;;;;;;0.53;0.53;;;6.90;99.10;6.10;96033.00;;;;5117153;28;20225;-63
2022/11/25 11:19:22;;;;;;;1.00;1.00;;;6.90;98.90;6.00;96029.00;;;;5117049;28;20227;-65
2022/11/25 11:21:52;;;;;;;0.80;0.80;;;6.80;98.70;6.10;96026.00;;;;5135135;28;20228;-65
2022/11/25 11:24:30;;;;;;;0.83;0.80;;;6.80;98.90;6.30;96027.00;;;;5135219;28;20304;-64
2022/11/25 11:27:14;;;;;;;1.00;1.00;;;6.90;99.70;6.20;96027.00;;;;5135041;28;20228;-63
2022/11/25 11:29:40;;;;;;;0.80;0.80;;;6.90;99.20;6.20;96023.00;;;;5135039;28;20198;-65
2022/11/25 11:32:22;;;;;;;0.70;0.70;;;7.00;99.50;6.30;96034.00;;;;5134963;28;20195;-65